Time;durP1;ratioP1;P1;durP2;ratioP2;P2;SDS_P1;SDS_P2;PMS_P1;PMS_P2;Temp;Humidity;BMP_temperature;BMP_pressure;BME280_temperature;BME280_humidity;BME280_pressure;Samples;Min_cycle;Max_cycle;Signal;HPM_P1;HPM_P2
2021/03/22 00:00:30;;;;;;;28.80;4.10;;;4.70;99.90;;;;;;5084611;28;20056;-69
2021/03/22 00:02:57;;;;;;;19.23;4.43;;;4.70;99.90;;;;;;5084750;28;20055;-69
2021/03/22 00:05:24;;;;;;;19.87;3.63;;;4.70;99.90;;;;;;5081715;28;20047;-69
2021/03/22 00:07:52;;;;;;;17.87;3.27;;;4.60;99.90;;;;;;5082603;28;20071;-69
2021/03/22 00:10:20;;;;;;;27.53;4.10;;;4.50;99.90;;;;;;5082101;28;20082;-69
2021/03/22 00:12:46;;;;;;;21.70;4.07;;;4.60;99.90;;;;;;5082318;28;20544;-69
2021/03/22 00:15:15;;;;;;;20.87;4.00;;;4.50;99.90;;;;;;5084086;28;20101;-69
2021/03/22 00:17:42;;;;;;;29.00;4.50;;;4.50;99.90;;;;;;5082228;28;20067;-69
2021/03/22 00:20:11;;;;;;;20.07;3.53;;;4.40;99.90;;;;;;5068320;28;20051;-69
2021/03/22 00:22:37;;;;;;;22.43;3.73;;;4.40;99.90;;;;;;5083410;28;20136;-69
2021/03/22 00:25:06;;;;;;;21.80;5.13;;;4.40;99.90;;;;;;5084794;28;20058;-69
2021/03/22 00:27:32;;;;;;;27.40;5.60;;;4.40;99.90;;;;;;5085564;28;20055;-69
2021/03/22 00:29:59;;;;;;;27.67;5.23;;;4.40;99.90;;;;;;5084528;28;20521;-69
2021/03/22 00:32:26;;;;;;;27.10;4.50;;;4.40;99.90;;;;;;5086128;28;20043;-69
2021/03/22 00:34:53;;;;;;;21.33;4.30;;;4.20;99.90;;;;;;5087365;28;20511;-69
2021/03/22 00:37:21;;;;;;;23.97;4.40;;;4.20;99.90;;;;;;5097697;28;20052;-69
2021/03/22 00:39:47;;;;;;;28.27;4.30;;;4.10;99.90;;;;;;5089804;28;20462;-69
2021/03/22 00:42:14;;;;;;;26.13;3.80;;;4.10;99.90;;;;;;5086239;28;20039;-69
2021/03/22 00:44:40;;;;;;;24.87;4.70;;;4.10;99.90;;;;;;5086740;28;20100;-69
2021/03/22 00:47:07;;;;;;;17.13;3.97;;;4.10;99.90;;;;;;5086205;28;20056;-69
2021/03/22 00:49:34;;;;;;;16.30;3.47;;;4.10;99.90;;;;;;5088655;28;20075;-69
2021/03/22 00:52:01;;;;;;;25.53;3.97;;;4.00;99.90;;;;;;5091241;28;20777;-69
2021/03/22 00:54:28;;;;;;;20.03;4.20;;;4.00;99.90;;;;;;5092035;28;20054;-69
2021/03/22 00:56:54;;;;;;;25.53;5.23;;;4.00;99.90;;;;;;5090682;28;20051;-69
2021/03/22 00:59:21;;;;;;;;;;;4.00;99.90;;;;;;5089310;28;20114;-69
2021/03/22 01:01:47;;;;;;;27.23;6.57;;;4.00;99.90;;;;;;5092955;28;19926;-69
2021/03/22 01:04:14;;;;;;;27.77;4.27;;;3.90;99.90;;;;;;5090753;28;20113;-69
2021/03/22 01:06:40;;;;;;;22.93;4.90;;;3.90;99.90;;;;;;5089959;28;20090;-69
2021/03/22 01:09:07;;;;;;;23.53;4.37;;;4.00;99.90;;;;;;5091016;28;20048;-69
2021/03/22 01:11:35;;;;;;;20.30;3.83;;;3.90;99.90;;;;;;5090852;28;20055;-69
2021/03/22 01:14:01;;;;;;;26.87;5.20;;;4.00;99.90;;;;;;5090072;28;20431;-69
2021/03/22 01:16:32;;;;;;;14.50;4.40;;;3.90;99.90;;;;;;5090032;28;20108;-69
2021/03/22 01:19:00;;;;;;;23.13;4.73;;;3.80;99.90;;;;;;5089485;28;20059;-69
2021/03/22 01:21:31;;;;;;;21.70;3.17;;;3.90;99.90;;;;;;5088756;28;20052;-69
2021/03/22 01:23:57;;;;;;;25.97;3.90;;;3.80;99.90;;;;;;5089367;28;20047;-69
2021/03/22 01:26:27;;;;;;;21.17;4.67;;;3.80;99.90;;;;;;5092242;28;20079;-69
2021/03/22 01:28:56;;;;;;;19.37;4.23;;;3.80;99.90;;;;;;5090606;28;20047;-69
2021/03/22 01:31:23;;;;;;;23.90;4.73;;;3.80;99.90;;;;;;5085095;28;20059;-70
2021/03/22 01:33:51;;;;;;;25.17;4.30;;;3.90;99.90;;;;;;5081240;28;20054;-69
2021/03/22 01:36:21;;;;;;;29.70;3.97;;;3.90;99.90;;;;;;5076132;28;20058;-70
2021/03/22 01:38:48;;;;;;;22.63;4.57;;;3.80;99.90;;;;;;5081225;28;20039;-70
2021/03/22 01:41:40;;;;;;;19.37;4.80;;;3.80;99.90;;;;;;5078859;28;20124;-70
2021/03/22 01:44:20;;;;;;;26.83;4.73;;;3.70;99.90;;;;;;5082148;28;20047;-70
2021/03/22 01:46:49;;;;;;;25.13;4.13;;;3.70;99.90;;;;;;5081780;28;20112;-69
2021/03/22 01:49:17;;;;;;;19.20;4.07;;;3.70;99.90;;;;;;5080935;28;20051;-69
2021/03/22 01:51:43;;;;;;;24.07;4.17;;;3.80;99.90;;;;;;5082512;28;20051;-70
2021/03/22 01:54:11;;;;;;;27.97;5.23;;;3.80;99.90;;;;;;5080793;28;20192;-70
2021/03/22 01:56:44;;;;;;;27.70;4.03;;;3.80;99.90;;;;;;5083702;28;20070;-69
2021/03/22 01:59:13;;;;;;;25.83;5.37;;;3.80;99.90;;;;;;5080515;28;20078;-69
2021/03/22 02:01:43;;;;;;;18.97;4.20;;;3.90;99.90;;;;;;5081760;28;20055;-70
2021/03/22 02:04:10;;;;;;;22.30;4.60;;;4.00;99.90;;;;;;5079670;28;20055;-69
2021/03/22 02:06:37;;;;;;;27.37;3.73;;;4.00;99.90;;;;;;5078827;28;20097;-70
2021/03/22 02:09:04;;;;;;;21.47;4.60;;;4.10;99.90;;;;;;5080997;28;20057;-69
2021/03/22 02:11:33;;;;;;;17.00;4.30;;;4.00;99.90;;;;;;5079306;28;20047;-70
2021/03/22 02:14:03;;;;;;;16.00;3.30;;;4.00;99.90;;;;;;5081256;28;20059;-70
2021/03/22 02:16:40;;;;;;;18.47;3.70;;;4.00;99.90;;;;;;5081566;28;20051;-69
2021/03/22 02:19:17;;;;;;;;;;;4.00;99.90;;;;;;5082815;28;20063;-70
2021/03/22 02:22:13;;;;;;;30.65;4.78;;;3.70;99.90;;;;;;5080218;28;20373;-69
2021/03/22 02:25:08;;;;;;;21.57;4.63;;;3.80;99.90;;;;;;5079785;28;20043;-70
2021/03/22 02:28:07;;;;;;;18.70;4.27;;;3.80;99.90;;;;;;5066419;28;20047;-70
2021/03/22 02:31:11;;;;;;;25.83;4.67;;;3.90;99.90;;;;;;5082319;28;20044;-70
2021/03/22 02:34:04;;;;;;;28.57;5.67;;;4.00;99.90;;;;;;5079118;28;20048;-70
2021/03/22 02:36:42;;;;;;;24.17;4.60;;;3.90;99.90;;;;;;5079310;28;20503;-70
2021/03/22 02:39:09;;;;;;;20.43;5.13;;;3.90;99.90;;;;;;5077267;28;20055;-69
2021/03/22 02:41:44;;;;;;;21.80;4.00;;;4.00;99.90;;;;;;5081638;28;20100;-69
2021/03/22 02:44:13;;;;;;;16.43;4.00;;;4.00;99.90;;;;;;5079108;28;20117;-70
2021/03/22 02:46:40;;;;;;;23.03;5.07;;;3.90;99.90;;;;;;5081874;28;20051;-70
2021/03/22 02:49:13;;;;;;;21.43;4.23;;;4.00;99.90;;;;;;5080069;28;20051;-70
2021/03/22 02:51:53;;;;;;;24.33;3.73;;;4.00;99.90;;;;;;5079698;28;20051;-70
2021/03/22 02:54:24;;;;;;;18.73;3.70;;;4.00;99.90;;;;;;5080200;28;20129;-70
2021/03/22 02:56:57;;;;;;;24.20;4.23;;;4.10;99.90;;;;;;5080908;28;20058;-70
2021/03/22 02:59:29;;;;;;;22.13;6.63;;;4.10;99.90;;;;;;5080694;28;20043;-70
2021/03/22 03:02:00;;;;;;;25.53;4.73;;;4.10;99.90;;;;;;5081993;28;20051;-70
2021/03/22 03:04:29;;;;;;;32.07;4.90;;;4.10;99.90;;;;;;5082811;28;20051;-70
2021/03/22 03:06:58;;;;;;;21.27;4.33;;;4.10;99.90;;;;;;5080660;28;20058;-70
2021/03/22 03:09:27;;;;;;;20.13;3.97;;;4.10;99.90;;;;;;5078714;28;20129;-70
2021/03/22 03:11:55;;;;;;;21.83;4.50;;;4.10;99.90;;;;;;5078999;28;20051;-70
2021/03/22 03:14:23;;;;;;;24.37;4.27;;;4.20;99.90;;;;;;5077863;28;20575;-70
2021/03/22 03:16:49;;;;;;;18.83;4.60;;;4.20;99.90;;;;;;5079692;28;20076;-70
2021/03/22 03:19:16;;;;;;;26.33;5.50;;;4.10;99.90;;;;;;5079439;28;20056;-70
2021/03/22 03:21:43;;;;;;;22.50;4.67;;;4.00;99.90;;;;;;5079110;28;20051;-71
2021/03/22 03:24:12;;;;;;;22.07;4.20;;;4.00;99.90;;;;;;5077552;28;20496;-70
2021/03/22 03:26:39;;;;;;;20.10;4.10;;;3.90;99.90;;;;;;5078862;28;20043;-70
2021/03/22 03:29:06;;;;;;;18.37;4.00;;;4.00;99.90;;;;;;5079289;28;20060;-70
2021/03/22 03:31:33;;;;;;;25.70;4.33;;;3.80;99.90;;;;;;5078692;28;20055;-70
2021/03/22 03:34:00;;;;;;;24.17;4.50;;;3.70;99.90;;;;;;5079036;28;20469;-70
2021/03/22 03:36:27;;;;;;;26.80;4.93;;;3.70;99.90;;;;;;5076722;28;20062;-70
2021/03/22 03:38:54;;;;;;;17.37;4.20;;;3.70;99.90;;;;;;5070131;28;20051;-70
2021/03/22 03:41:21;;;;;;;32.43;8.50;;;3.70;99.90;;;;;;5075416;28;20047;-70
2021/03/22 03:43:48;;;;;;;21.57;5.37;;;3.70;99.90;;;;;;5076151;28;20044;-70
2021/03/22 03:46:14;;;;;;;30.27;4.53;;;3.60;99.90;;;;;;5074660;28;20183;-70
2021/03/22 03:48:40;;;;;;;24.93;4.00;;;3.60;99.90;;;;;;5074766;28;20453;-70
2021/03/22 03:51:07;;;;;;;22.30;3.87;;;3.60;99.90;;;;;;5076233;28;20565;-70
2021/03/22 03:53:34;;;;;;;13.17;3.80;;;3.60;99.90;;;;;;5073199;28;20054;-70
2021/03/22 03:56:04;;;;;;;17.13;3.83;;;3.50;99.90;;;;;;5075613;28;20055;-70
2021/03/22 03:58:30;;;;;;;19.80;4.33;;;3.40;99.90;;;;;;5076742;28;20503;-70
2021/03/22 04:00:57;;;;;;;23.57;5.53;;;3.40;99.90;;;;;;5075552;28;20047;-70
2021/03/22 04:03:29;;;;;;;22.97;3.97;;;3.30;99.90;;;;;;5075429;28;20128;-70
2021/03/22 04:05:59;;;;;;;25.77;4.17;;;3.30;99.90;;;;;;5075454;28;20055;-70
2021/03/22 04:08:27;;;;;;;20.50;4.03;;;3.40;99.90;;;;;;5075266;28;20126;-70
2021/03/22 04:10:54;;;;;;;24.67;3.90;;;3.20;99.90;;;;;;5074920;28;20063;-70
2021/03/22 04:13:21;;;;;;;22.53;4.77;;;3.20;99.90;;;;;;5075268;28;20424;-70
2021/03/22 04:15:48;;;;;;;19.47;4.00;;;3.10;99.90;;;;;;5076737;28;20054;-70
2021/03/22 04:18:15;;;;;;;26.10;4.47;;;3.00;99.90;;;;;;5076035;28;20058;-70
2021/03/22 04:20:42;;;;;;;29.07;4.93;;;3.00;99.90;;;;;;5076406;28;20052;-70
2021/03/22 04:23:09;;;;;;;22.30;4.83;;;3.00;99.90;;;;;;5074117;28;20044;-70
2021/03/22 04:25:35;;;;;;;28.37;4.67;;;3.00;99.90;;;;;;5079824;28;20126;-70
2021/03/22 04:28:03;;;;;;;22.13;4.83;;;3.00;99.90;;;;;;5078587;28;20083;-70
2021/03/22 04:30:30;;;;;;;18.80;3.93;;;2.90;99.90;;;;;;5079974;28;20421;-70
2021/03/22 04:32:57;;;;;;;26.87;4.67;;;2.90;99.90;;;;;;5078574;28;20466;-70
2021/03/22 04:35:25;;;;;;;27.47;4.97;;;2.80;99.90;;;;;;5079066;28;20412;-70
2021/03/22 04:37:52;;;;;;;24.47;3.97;;;2.70;99.90;;;;;;5078945;28;20800;-70
2021/03/22 04:40:26;;;;;;;27.77;4.00;;;2.80;99.90;;;;;;5073052;28;20059;-70
2021/03/22 04:42:52;;;;;;;23.43;3.90;;;2.70;99.90;;;;;;5078134;28;20570;-70
2021/03/22 04:45:22;;;;;;;20.80;4.07;;;2.90;99.90;;;;;;5078204;28;20054;-70
2021/03/22 04:47:50;;;;;;;19.57;4.20;;;2.90;99.90;;;;;;5077349;28;20051;-70
2021/03/22 04:50:19;;;;;;;23.00;4.17;;;2.90;99.90;;;;;;5078653;28;20051;-70
2021/03/22 04:52:45;;;;;;;21.27;5.83;;;2.80;99.90;;;;;;5077747;28;20075;-70
2021/03/22 04:55:12;;;;;;;22.10;5.77;;;2.90;99.90;;;;;;5079165;28;20112;-70
2021/03/22 04:57:39;;;;;;;17.63;4.37;;;2.80;99.90;;;;;;5079956;28;20503;-70
2021/03/22 05:00:09;;;;;;;17.53;3.67;;;2.70;99.90;;;;;;5077935;28;20051;-70
2021/03/22 05:02:35;;;;;;;20.50;3.87;;;2.60;99.90;;;;;;5076942;28;20121;-70
2021/03/22 05:05:04;;;;;;;23.70;4.77;;;2.50;99.90;;;;;;5079414;28;20052;-70
2021/03/22 05:07:31;;;;;;;23.07;3.90;;;2.50;99.90;;;;;;5075947;28;20039;-70
2021/03/22 05:09:57;;;;;;;26.90;3.70;;;2.50;99.90;;;;;;5077635;28;20051;-70
2021/03/22 05:12:24;;;;;;;24.57;4.67;;;2.50;99.90;;;;;;5079216;28;20051;-70
2021/03/22 05:14:50;;;;;;;18.17;3.60;;;2.50;99.90;;;;;;5079466;28;20059;-70
2021/03/22 05:17:17;;;;;;;19.47;5.63;;;2.60;99.90;;;;;;5078011;28;20047;-70
2021/03/22 05:19:43;;;;;;;29.33;5.03;;;2.40;99.90;;;;;;5077772;28;20078;-70
2021/03/22 05:22:11;;;;;;;23.43;4.00;;;2.50;99.90;;;;;;5078481;28;20047;-70
2021/03/22 05:24:37;;;;;;;28.23;4.23;;;2.70;99.90;;;;;;5078000;28;20503;-70
2021/03/22 05:27:05;;;;;;;19.10;4.27;;;2.70;99.90;;;;;;5078463;28;20528;-70
2021/03/22 05:29:32;;;;;;;31.90;5.07;;;2.80;99.90;;;;;;5078138;28;20079;-70
2021/03/22 05:31:58;;;;;;;27.40;4.67;;;2.80;99.90;;;;;;5078107;28;20054;-70
2021/03/22 05:34:25;;;;;;;25.03;4.10;;;2.90;99.90;;;;;;5075381;28;20059;-70
2021/03/22 05:36:52;;;;;;;17.53;3.83;;;2.90;99.90;;;;;;5078155;28;20105;-70
2021/03/22 05:39:20;;;;;;;22.83;4.47;;;3.00;99.90;;;;;;5078208;28;20484;-70
2021/03/22 05:42:00;;;;;;;27.80;4.60;;;3.10;99.90;;;;;;5078722;28;20043;-70
2021/03/22 05:44:49;;;;;;;23.57;4.43;;;3.10;99.90;;;;;;5078482;28;20052;-70
2021/03/22 05:47:24;;;;;;;27.20;4.57;;;3.10;99.90;;;;;;5078211;28;20110;-70
2021/03/22 05:50:06;;;;;;;19.23;4.17;;;3.20;99.90;;;;;;5079037;28;20177;-70
2021/03/22 05:52:49;;;;;;;19.43;4.10;;;3.40;99.90;;;;;;5078537;28;20114;-70
2021/03/22 05:55:58;;;;;;;23.50;4.90;;;3.40;99.90;;;;;;5078503;28;20108;-70
2021/03/22 05:58:57;;;;;;;21.73;4.40;;;3.50;99.90;;;;;;5072666;28;20082;-70
2021/03/22 06:01:33;;;;;;;24.43;4.73;;;3.70;99.90;;;;;;5077945;28;20047;-70
2021/03/22 06:04:04;;;;;;;27.45;5.13;;;3.80;99.90;;;;;;5076269;28;20047;-70
2021/03/22 06:06:36;;;;;;;30.83;7.00;;;3.90;99.90;;;;;;5077341;28;20793;-70
2021/03/22 06:09:07;;;;;;;22.00;4.90;;;4.00;99.90;;;;;;5076978;28;20409;-70
2021/03/22 06:11:53;;;;;;;19.93;4.50;;;4.10;99.90;;;;;;5082957;28;20107;-71
2021/03/22 06:14:26;;;;;;;20.53;4.80;;;4.10;99.90;;;;;;5079612;28;20104;-70
2021/03/22 06:17:00;;;;;;;23.50;5.27;;;4.20;99.90;;;;;;5082735;28;20051;-70
2021/03/22 06:19:28;;;;;;;23.90;4.37;;;4.20;99.90;;;;;;5079925;28;20104;-70
2021/03/22 06:21:55;;;;;;;28.33;4.37;;;4.40;99.90;;;;;;5078701;28;21196;-70
2021/03/22 06:24:24;;;;;;;21.70;4.30;;;4.50;99.90;;;;;;5078986;28;20055;-70
2021/03/22 06:26:53;;;;;;;24.67;4.27;;;4.50;99.90;;;;;;5077909;28;20087;-70
2021/03/22 06:29:25;;;;;;;17.77;3.80;;;4.50;99.90;;;;;;5078645;28;20055;-70
2021/03/22 06:31:57;;;;;;;20.07;4.33;;;4.60;99.90;;;;;;5080232;28;20561;-70
2021/03/22 06:34:35;;;;;;;20.77;3.63;;;4.60;99.90;;;;;;5077236;28;20067;-70
2021/03/22 06:37:02;;;;;;;21.47;3.83;;;4.60;99.90;;;;;;5079065;28;20047;-70
2021/03/22 06:39:29;;;;;;;17.53;3.60;;;4.60;99.90;;;;;;5078151;28;20439;-70
2021/03/22 06:41:56;;;;;;;18.70;4.00;;;4.60;99.90;;;;;;5079135;28;20055;-70
2021/03/22 06:44:39;;;;;;;20.27;3.87;;;4.60;99.90;;;;;;5077452;28;20051;-70
2021/03/22 06:47:17;;;;;;;27.13;4.73;;;4.70;99.90;;;;;;5077033;28;20633;-70
2021/03/22 06:49:46;;;;;;;17.73;5.13;;;4.90;99.90;;;;;;5078503;28;20450;-70
2021/03/22 06:52:18;;;;;;;17.60;4.27;;;4.70;99.90;;;;;;5075397;28;20039;-70
2021/03/22 06:54:47;;;;;;;18.20;3.67;;;4.90;99.90;;;;;;5080479;28;20138;-70
2021/03/22 06:57:17;;;;;;;24.10;4.17;;;4.80;99.90;;;;;;5080465;28;21618;-70
2021/03/22 07:00:04;;;;;;;30.77;5.80;;;4.80;99.90;;;;;;5078158;28;20051;-70
2021/03/22 07:02:39;;;;;;;24.05;4.22;;;4.80;99.90;;;;;;5079025;28;20054;-70
2021/03/22 07:05:32;;;;;;;26.80;3.60;;;4.90;99.90;;;;;;5079088;28;20051;-70
2021/03/22 07:08:01;;;;;;;16.13;3.50;;;4.90;99.90;;;;;;5073803;28;20063;-70
2021/03/22 07:10:30;;;;;;;13.00;3.13;;;4.90;99.90;;;;;;5078325;28;20065;-70
2021/03/22 07:13:21;;;;;;;24.37;4.43;;;4.90;99.90;;;;;;5077007;28;20330;-70
2021/03/22 07:15:49;;;;;;;16.67;3.93;;;5.00;99.90;;;;;;5077704;28;20055;-69
2021/03/22 07:18:22;;;;;;;17.80;3.23;;;4.90;99.90;;;;;;5076732;28;20051;-69
2021/03/22 07:21:04;;;;;;;19.43;3.97;;;5.00;99.90;;;;;;5078982;28;20089;-69
2021/03/22 07:23:53;;;;;;;24.10;3.90;;;5.10;99.90;;;;;;5076965;28;20059;-69
2021/03/22 07:26:43;;;;;;;20.17;3.07;;;5.10;99.90;;;;;;5076806;28;20048;-70
2021/03/22 07:29:40;;;;;;;24.93;3.57;;;5.10;99.90;;;;;;5074022;28;20047;-70
2021/03/22 07:32:21;;;;;;;21.67;3.78;;;5.20;99.90;;;;;;5075328;28;20584;-70
2021/03/22 07:35:02;;;;;;;21.67;3.80;;;5.30;99.90;;;;;;5075950;28;20043;-70
2021/03/22 07:37:36;;;;;;;21.87;3.90;;;5.30;99.90;;;;;;5079287;28;20043;-70
2021/03/22 07:40:11;;;;;;;15.53;3.33;;;5.20;99.90;;;;;;5077715;28;20048;-70
2021/03/22 07:42:53;;;;;;;16.07;2.97;;;5.30;99.90;;;;;;5079098;28;20045;-69
2021/03/22 07:45:36;;;;;;;13.83;3.40;;;5.30;99.90;;;;;;5074635;28;20051;-70
2021/03/22 07:48:44;;;;;;;22.47;3.63;;;5.30;99.90;;;;;;5073031;28;20074;-70
2021/03/22 07:51:50;;;;;;;14.88;2.83;;;5.40;99.90;;;;;;5082815;28;20052;-70
2021/03/22 07:54:33;;;;;;;22.27;4.00;;;5.20;99.90;;;;;;5086329;28;20051;-70
2021/03/22 07:57:06;;;;;;;14.00;3.20;;;5.20;99.90;;;;;;5088005;28;20518;-70
2021/03/22 07:59:43;;;;;;;16.73;3.90;;;5.40;99.90;;;;;;5086182;28;20051;-70
2021/03/22 08:02:30;;;;;;;29.23;4.57;;;5.20;99.90;;;;;;5091288;28;20052;-70
2021/03/22 08:05:03;;;;;;;20.85;3.03;;;5.10;99.90;;;;;;5089463;28;20074;-70
2021/03/22 08:07:56;;;;;;;11.53;2.63;;;5.30;99.90;;;;;;5088194;28;20521;-70
2021/03/22 08:10:48;;;;;;;13.50;3.37;;;5.40;99.90;;;;;;5067498;28;20048;-70
2021/03/22 08:13:33;;;;;;;17.87;3.10;;;5.50;99.90;;;;;;5085818;28;20128;-70
2021/03/22 08:16:24;;;;;;;12.60;2.53;;;5.70;99.90;;;;;;5072155;28;20143;-69
2021/03/22 08:18:55;;;;;;;14.73;2.90;;;5.80;99.90;;;;;;5079461;28;20412;-72
2021/03/22 08:21:26;;;;;;;16.40;2.83;;;5.60;99.90;;;;;;5077961;28;20055;-73
2021/03/22 08:23:58;;;;;;;14.03;2.90;;;5.70;99.90;;;;;;5077371;28;20047;-70
2021/03/22 08:26:31;;;;;;;13.83;2.40;;;5.70;99.90;;;;;;5078512;28;20040;-71
2021/03/22 08:29:04;;;;;;;16.03;2.80;;;5.80;99.90;;;;;;5078984;28;20063;-71
2021/03/22 08:31:41;;;;;;;14.63;2.83;;;5.90;99.90;;;;;;5078849;28;20050;-69
2021/03/22 08:34:14;;;;;;;16.77;3.28;;;6.00;99.90;;;;;;5078241;28;20164;-69
2021/03/22 08:36:47;;;;;;;18.03;3.00;;;6.20;99.90;;;;;;5078253;28;20048;-71
2021/03/22 08:39:27;;;;;;;15.70;2.87;;;6.30;99.90;;;;;;5075112;28;20071;-69
2021/03/22 08:42:02;;;;;;;17.50;3.70;;;6.40;99.90;;;;;;5077900;28;20055;-71
2021/03/22 08:44:34;;;;;;;14.47;2.70;;;6.40;99.90;;;;;;5072331;28;20047;-68
2021/03/22 08:47:09;;;;;;;15.07;3.30;;;6.30;99.90;;;;;;5075773;28;20105;-68
2021/03/22 08:49:45;;;;;;;17.30;3.73;;;6.40;99.90;;;;;;5076377;28;20169;-68
2021/03/22 08:52:27;;;;;;;12.40;3.20;;;6.60;99.90;;;;;;5065637;28;20055;-69
2021/03/22 08:55:02;;;;;;;17.70;2.87;;;6.70;99.90;;;;;;5069055;28;20142;-69
2021/03/22 08:57:35;;;;;;;16.63;2.50;;;6.90;99.90;;;;;;5075458;28;20054;-68
2021/03/22 09:00:24;;;;;;;10.48;2.50;;;7.00;99.90;;;;;;5077695;28;20044;-69
2021/03/22 09:02:54;;;;;;;13.50;2.78;;;7.00;99.90;;;;;;5075068;28;20055;-69
2021/03/22 09:05:24;;;;;;;11.65;3.03;;;7.00;99.90;;;;;;5075098;28;20426;-70
2021/03/22 09:07:51;;;;;;;10.70;2.97;;;7.20;99.90;;;;;;5073762;28;20055;-70
2021/03/22 09:10:36;;;;;;;13.07;2.75;;;7.30;99.90;;;;;;5074898;28;20055;-70
2021/03/22 09:13:26;;;;;;;11.55;2.35;;;7.40;99.90;;;;;;5085247;28;20101;-69
2021/03/22 09:16:26;;;;;;;13.23;2.70;;;7.70;99.90;;;;;;5085356;28;20051;-70
2021/03/22 09:19:30;;;;;;;12.70;2.58;;;7.70;99.90;;;;;;5080882;28;20079;-71
2021/03/22 09:22:30;;;;;;;13.88;2.08;;;8.20;99.90;;;;;;5085385;28;20503;-70
2021/03/22 09:24:57;;;;;;;12.35;2.72;;;8.60;99.90;;;;;;5080592;28;20040;-70
2021/03/22 09:27:32;;;;;;;14.13;2.53;;;9.40;99.90;;;;;;5085407;28;20048;-70
2021/03/22 09:30:40;;;;;;;10.30;2.50;;;10.50;99.90;;;;;;5086753;28;20143;-70
2021/03/22 09:33:07;;;;;;;10.85;2.20;;;12.20;99.90;;;;;;5085356;28;20081;-70
2021/03/22 09:36:05;;;;;;;8.35;2.42;;;14.60;99.90;;;;;;5087304;28;20043;-70
2021/03/22 09:38:49;;;;;;;11.00;2.47;;;16.10;97.20;;;;;;5054655;28;20043;-70
2021/03/22 09:41:17;;;;;;;7.88;2.33;;;15.70;93.90;;;;;;5074066;28;20106;-70
2021/03/22 09:44:06;;;;;;;9.05;1.98;;;15.80;91.90;;;;;;5080924;28;20126;-70
2021/03/22 09:46:37;;;;;;;7.40;1.80;;;16.20;89.30;;;;;;5079392;28;20048;-70
2021/03/22 09:49:24;;;;;;;9.25;2.05;;;17.00;80.00;;;;;;5082764;28;20047;-69
2021/03/22 09:51:57;;;;;;;9.82;2.55;;;17.70;76.00;;;;;;5074724;28;20051;-69
2021/03/22 09:54:43;;;;;;;7.40;2.05;;;17.20;75.60;;;;;;5073693;28;20096;-70
2021/03/22 09:57:35;;;;;;;10.20;2.45;;;16.10;74.30;;;;;;5079038;28;20048;-70
2021/03/22 10:00:49;;;;;;;14.73;2.33;;;14.90;76.50;;;;;;5071645;28;20048;-70
2021/03/22 10:03:35;;;;;;;6.53;1.70;;;14.00;80.20;;;;;;5078157;28;20101;-70
2021/03/22 10:06:04;;;;;;;6.70;1.92;;;14.50;81.40;;;;;;5080897;28;20055;-70
2021/03/22 10:08:34;;;;;;;7.55;2.05;;;15.30;77.40;;;;;;5082616;28;20051;-70
2021/03/22 10:11:04;;;;;;;8.02;1.83;;;14.70;76.60;;;;;;5082363;28;20503;-70
2021/03/22 10:13:35;;;;;;;9.65;2.00;;;13.80;75.50;;;;;;5083238;28;20083;-69
2021/03/22 10:16:10;;;;;;;5.50;1.73;;;12.70;78.90;;;;;;5080441;28;20050;-69
2021/03/22 10:18:41;;;;;;;13.10;2.20;;;11.80;82.80;;;;;;5077817;28;20467;-69
2021/03/22 10:21:12;;;;;;;10.40;2.42;;;11.30;85.60;;;;;;5072101;28;20132;-68
2021/03/22 10:23:47;;;;;;;5.90;1.50;;;10.80;89.60;;;;;;5071933;28;20044;-69
2021/03/22 10:26:21;;;;;;;7.22;1.88;;;10.50;90.90;;;;;;5074131;28;20060;-68
2021/03/22 10:28:48;;;;;;;10.38;2.08;;;10.10;91.80;;;;;;5074782;28;20059;-69
2021/03/22 10:31:21;;;;;;;7.32;2.00;;;10.10;92.80;;;;;;5073722;28;20061;-69
2021/03/22 10:33:51;;;;;;;10.27;1.95;;;10.00;93.50;;;;;;5079577;28;20059;-69
2021/03/22 10:36:28;;;;;;;7.70;2.10;;;9.70;94.70;;;;;;5082756;28;20047;-68
2021/03/22 10:38:56;;;;;;;9.50;2.00;;;9.70;95.90;;;;;;5080463;28;20516;-68
2021/03/22 10:41:32;;;;;;;10.35;2.92;;;9.50;97.20;;;;;;5077690;28;20048;-69
2021/03/22 10:44:01;;;;;;;6.13;2.08;;;9.70;98.00;;;;;;5074363;28;20058;-68
2021/03/22 10:46:33;;;;;;;8.52;2.10;;;9.60;99.10;;;;;;5074353;28;20048;-69
2021/03/22 10:52:31;;;;;;;8.52;2.00;;;9.30;99.90;;;;;;5107551;28;20080;-69
2021/03/22 10:54:59;;;;;;;8.70;1.90;;;9.10;98.60;;;;;;5080661;28;20636;-69
2021/03/22 10:57:29;;;;;;;9.65;1.90;;;9.30;99.20;;;;;;5087773;28;20098;-69
2021/03/22 10:59:59;;;;;;;8.95;2.83;;;9.60;99.60;;;;;;5088056;28;20055;-69
2021/03/22 11:02:30;;;;;;;7.07;2.28;;;9.50;99.90;;;;;;5086253;28;20059;-69
2021/03/22 11:04:57;;;;;;;13.38;2.40;;;9.20;99.90;;;;;;5086602;28;20083;-69
2021/03/22 11:07:27;;;;;;;8.13;2.75;;;9.10;99.90;;;;;;5085116;28;20047;-68
2021/03/22 11:09:57;;;;;;;10.55;2.40;;;9.00;99.90;;;;;;5076952;28;20083;-69
2021/03/22 11:12:25;;;;;;;8.93;2.25;;;8.80;99.90;;;;;;5068532;28;20052;-69
2021/03/22 11:14:57;;;;;;;9.13;1.98;;;9.00;99.90;;;;;;5067822;28;20114;-69
2021/03/22 11:17:26;;;;;;;8.88;2.03;;;9.00;99.90;;;;;;5082460;28;20079;-68
2021/03/22 11:19:53;;;;;;;8.93;2.10;;;9.30;99.20;;;;;;5080890;28;20081;-69
2021/03/22 11:22:30;;;;;;;9.07;2.13;;;9.60;99.60;;;;;;5080654;28;20062;-69
2021/03/22 11:24:57;;;;;;;10.15;1.92;;;9.40;99.50;;;;;;5082146;28;20052;-68
2021/03/22 11:27:26;;;;;;;12.65;2.20;;;9.30;99.60;;;;;;5078654;28;20056;-69
2021/03/22 11:30:02;;;;;;;7.45;2.10;;;9.40;99.90;;;;;;5080288;28;20055;-69
2021/03/22 11:32:31;;;;;;;8.38;2.45;;;9.50;99.90;;;;;;5080048;28;20162;-68
2021/03/22 11:34:58;;;;;;;9.80;2.28;;;9.50;99.90;;;;;;5081784;28;20050;-69
2021/03/22 11:37:26;;;;;;;8.45;2.20;;;9.40;99.90;;;;;;5081721;28;20579;-69
2021/03/22 11:39:59;;;;;;;10.10;2.50;;;9.40;99.90;;;;;;5080787;28;20107;-69
2021/03/22 11:42:32;;;;;;;9.93;2.20;;;9.40;99.90;;;;;;5081297;28;20056;-69
2021/03/22 11:45:01;;;;;;;10.27;2.30;;;9.40;99.90;;;;;;5081022;28;20905;-68
2021/03/22 11:47:45;;;;;;;8.23;2.30;;;9.20;99.90;;;;;;5081213;28;20282;-69
2021/03/22 11:50:41;;;;;;;12.52;2.40;;;9.00;99.90;;;;;;5075868;28;20048;-69
2021/03/22 11:53:16;;;;;;;7.10;2.30;;;9.20;99.90;;;;;;5074625;28;20058;-69
2021/03/22 11:55:45;;;;;;;11.23;2.67;;;9.10;99.90;;;;;;5080976;28;20047;-70
2021/03/22 11:58:33;;;;;;;12.40;3.25;;;9.30;99.90;;;;;;5090261;28;20047;-70
2021/03/22 12:01:19;;;;;;;12.05;2.55;;;9.30;99.90;;;;;;5095716;28;20054;-69
2021/03/22 12:03:46;;;;;;;12.90;2.40;;;9.30;99.90;;;;;;5093983;28;20059;-69
2021/03/22 12:06:15;;;;;;;12.55;2.53;;;9.50;99.90;;;;;;5075720;28;20457;-69
2021/03/22 12:08:44;;;;;;;12.85;2.45;;;10.10;99.90;;;;;;5079073;28;20070;-70
2021/03/22 12:11:14;;;;;;;9.27;2.95;;;10.80;99.90;;;;;;5077797;28;20051;-69
2021/03/22 12:13:41;;;;;;;11.23;2.55;;;11.50;99.90;;;;;;5068021;28;20048;-69
2021/03/22 12:16:08;;;;;;;14.60;3.22;;;12.60;99.40;;;;;;5080212;28;20409;-69
2021/03/22 12:18:39;;;;;;;14.18;3.78;;;14.20;96.70;;;;;;5080620;28;20079;-69
2021/03/22 12:21:12;;;;;;;14.27;3.60;;;15.40;93.00;;;;;;5082092;28;20054;-70
2021/03/22 12:23:39;;;;;;;8.57;2.22;;;16.40;90.30;;;;;;5082186;28;20043;-69
2021/03/22 12:26:06;;;;;;;11.68;2.95;;;16.90;85.00;;;;;;5076316;28;20063;-69
2021/03/22 12:28:33;;;;;;;10.02;2.70;;;16.40;78.70;;;;;;5076647;28;20116;-69
2021/03/22 12:31:00;;;;;;;12.88;2.42;;;15.70;81.10;;;;;;5074979;28;20104;-69
2021/03/22 12:33:29;;;;;;;13.15;4.03;;;15.30;79.40;;;;;;5074256;28;20574;-69
2021/03/22 12:35:58;;;;;;;10.88;3.13;;;14.90;78.40;;;;;;5075826;28;20047;-69
2021/03/22 12:38:25;;;;;;;14.43;3.17;;;13.90;80.60;;;;;;5077948;28;20537;-69
2021/03/22 12:40:52;;;;;;;13.93;2.72;;;13.70;82.20;;;;;;5084066;28;20067;-70
2021/03/22 12:43:24;;;;;;;17.02;4.10;;;13.20;82.00;;;;;;5087200;28;20791;-70
2021/03/22 12:45:51;;;;;;;7.63;2.13;;;12.50;83.40;;;;;;5089512;28;20055;-70
2021/03/22 12:48:18;;;;;;;12.75;2.88;;;12.70;83.50;;;;;;5091632;28;21066;-70
2021/03/22 12:50:45;;;;;;;10.25;2.53;;;13.00;84.40;;;;;;5091442;28;20043;-70
2021/03/22 12:53:13;;;;;;;15.45;3.42;;;13.30;83.70;;;;;;5086877;28;20063;-69
2021/03/22 12:55:40;;;;;;;13.60;2.67;;;14.00;81.10;;;;;;5077057;28;20138;-70
2021/03/22 12:58:15;;;;;;;16.10;2.85;;;13.20;80.30;;;;;;5090516;28;20052;-70
2021/03/22 13:00:43;;;;;;;10.90;2.60;;;13.30;80.20;;;;;;5088752;28;20440;-70
2021/03/22 13:03:19;;;;;;;9.10;2.17;;;13.50;80.20;;;;;;5085654;28;20083;-70
2021/03/22 13:05:45;;;;;;;12.35;3.33;;;14.60;79.10;;;;;;5088033;28;20044;-70
2021/03/22 13:08:13;;;;;;;12.45;3.03;;;14.60;78.80;;;;;;5083402;28;20443;-70
2021/03/22 13:10:39;;;;;;;11.18;2.60;;;14.50;78.10;;;;;;5085805;28;20048;-70
2021/03/22 13:13:06;;;;;;;9.38;2.38;;;14.40;76.80;;;;;;5083907;28;20097;-70
2021/03/22 13:15:36;;;;;;;11.35;2.78;;;14.20;76.70;;;;;;5087968;28;20098;-70
2021/03/22 13:18:11;;;;;;;11.63;2.58;;;13.80;75.40;;;;;;5083806;28;20108;-70
2021/03/22 13:20:38;;;;;;;12.77;2.60;;;13.20;76.90;;;;;;5085522;28;20097;-70